sensor_id;sensor_type;location;lat;lon;timestamp;temperature;humidity
16384;DHT22;8301;51.440;6.610;2023-08-31T00:01:25;11.70;99.90
16384;DHT22;8301;51.440;6.610;2023-08-31T00:03:51;11.60;99.90
16384;DHT22;8301;51.440;6.610;2023-08-31T00:06:20;11.70;99.90
16384;DHT22;8301;51.440;6.610;2023-08-31T00:08:48;11.60;99.90
16384;DHT22;8301;51.440;6.610;2023-08-31T00:11:21;11.50;99.90
16384;DHT22;8301;51.440;6.610;2023-08-31T00:13:51;11.40;99.90
16384;DHT22;8301;51.440;6.610;2023-08-31T00:16:29;11.50;99.90
16384;DHT22;8301;51.440;6.610;2023-08-31T00:18:57;11.40;99.90
16384;DHT22;8301;51.440;6.610;2023-08-31T00:21:24;11.40;99.90
16384;DHT22;8301;51.440;6.610;2023-08-31T00:52:18;11.00;99.90
16384;DHT22;8301;51.440;6.610;2023-08-31T01:27:14;10.70;99.90
16384;DHT22;8301;51.440;6.610;2023-08-31T01:29:44;10.80;99.90
16384;DHT22;8301;51.440;6.610;2023-08-31T01:32:29;10.70;99.90
16384;DHT22;8301;51.440;6.610;2023-08-31T01:34:57;10.70;99.90
16384;DHT22;8301;51.440;6.610;2023-08-31T01:37:29;10.70;99.90
16384;DHT22;8301;51.440;6.610;2023-08-31T01:39:55;10.60;99.90
16384;DHT22;8301;51.440;6.610;2023-08-31T01:42:27;10.60;99.90
16384;DHT22;8301;51.440;6.610;2023-08-31T01:44:53;10.60;99.90
16384;DHT22;8301;51.440;6.610;2023-08-31T01:47:36;10.50;99.90
16384;DHT22;8301;51.440;6.610;2023-08-31T01:50:03;10.50;99.90
16384;DHT22;8301;51.440;6.610;2023-08-31T01:52:30;10.50;99.90
16384;DHT22;8301;51.440;6.610;2023-08-31T01:55:04;10.50;99.90
16384;DHT22;8301;51.440;6.610;2023-08-31T01:57:31;10.50;99.90
16384;DHT22;8301;51.440;6.610;2023-08-31T02:00:13;10.50;99.90
16384;DHT22;8301;51.440;6.610;2023-08-31T02:02:40;10.50;99.90
16384;DHT22;8301;51.440;6.610;2023-08-31T02:05:12;10.50;99.90
16384;DHT22;8301;51.440;6.610;2023-08-31T02:07:43;10.60;99.90
16384;DHT22;8301;51.440;6.610;2023-08-31T02:10:12;10.60;99.90
16384;DHT22;8301;51.440;6.610;2023-08-31T02:17:52;10.40;99.90
16384;DHT22;8301;51.440;6.610;2023-08-31T02:20:20;10.40;99.90
16384;DHT22;8301;51.440;6.610;2023-08-31T02:22:48;10.40;99.90
16384;DHT22;8301;51.440;6.610;2023-08-31T02:25:16;10.40;99.90
16384;DHT22;8301;51.440;6.610;2023-08-31T02:27:43;10.40;99.90
16384;DHT22;8301;51.440;6.610;2023-08-31T02:30:10;10.40;99.90
16384;DHT22;8301;51.440;6.610;2023-08-31T02:35:13;10.40;99.90
16384;DHT22;8301;51.440;6.610;2023-08-31T02:37:40;10.30;99.90
16384;DHT22;8301;51.440;6.610;2023-08-31T02:40:07;10.30;99.90
16384;DHT22;8301;51.440;6.610;2023-08-31T02:42:34;10.30;99.90
16384;DHT22;8301;51.440;6.610;2023-08-31T02:45:04;10.30;99.90
16384;DHT22;8301;51.440;6.610;2023-08-31T02:47:31;10.30;99.90
16384;DHT22;8301;51.440;6.610;2023-08-31T02:49:58;10.20;99.90
16384;DHT22;8301;51.440;6.610;2023-08-31T02:52:25;10.20;99.90
16384;DHT22;8301;51.440;6.610;2023-08-31T02:54:53;10.20;99.90
16384;DHT22;8301;51.440;6.610;2023-08-31T02:57:20;10.20;99.90
16384;DHT22;8301;51.440;6.610;2023-08-31T02:59:53;10.20;99.90
16384;DHT22;8301;51.440;6.610;2023-08-31T03:02:20;10.20;99.90
16384;DHT22;8301;51.440;6.610;2023-08-31T03:04:47;10.20;99.90
16384;DHT22;8301;51.440;6.610;2023-08-31T03:07:18;10.20;99.90
16384;DHT22;8301;51.440;6.610;2023-08-31T03:09:52;10.20;99.90
16384;DHT22;8301;51.440;6.610;2023-08-31T03:12:18;10.20;99.90
16384;DHT22;8301;51.440;6.610;2023-08-31T03:14:45;10.20;99.90
16384;DHT22;8301;51.440;6.610;2023-08-31T03:17:12;10.30;99.90
16384;DHT22;8301;51.440;6.610;2023-08-31T03:19:39;10.20;99.90
16384;DHT22;8301;51.440;6.610;2023-08-31T03:22:06;10.20;99.90
16384;DHT22;8301;51.440;6.610;2023-08-31T03:24:33;10.10;99.90
16384;DHT22;8301;51.440;6.610;2023-08-31T03:27:00;10.10;99.90
16384;DHT22;8301;51.440;6.610;2023-08-31T03:29:26;10.20;99.90
16384;DHT22;8301;51.440;6.610;2023-08-31T03:31:54;10.20;99.90
16384;DHT22;8301;51.440;6.610;2023-08-31T03:34:21;10.10;99.90
16384;DHT22;8301;51.440;6.610;2023-08-31T03:36:48;10.20;99.90
16384;DHT22;8301;51.440;6.610;2023-08-31T03:39:19;10.20;99.90
16384;DHT22;8301;51.440;6.610;2023-08-31T03:41:45;10.20;99.90
16384;DHT22;8301;51.440;6.610;2023-08-31T03:44:12;10.20;99.90
16384;DHT22;8301;51.440;6.610;2023-08-31T03:46:40;10.20;99.90
16384;DHT22;8301;51.440;6.610;2023-08-31T03:49:07;10.20;99.90
16384;DHT22;8301;51.440;6.610;2023-08-31T03:51:36;10.20;99.90
16384;DHT22;8301;51.440;6.610;2023-08-31T03:54:02;10.20;99.90
16384;DHT22;8301;51.440;6.610;2023-08-31T03:56:31;10.20;99.90
16384;DHT22;8301;51.440;6.610;2023-08-31T03:58:58;10.20;99.90
16384;DHT22;8301;51.440;6.610;2023-08-31T04:01:25;10.10;99.90
16384;DHT22;8301;51.440;6.610;2023-08-31T04:03:52;10.20;99.90
16384;DHT22;8301;51.440;6.610;2023-08-31T04:06:18;10.10;99.90
16384;DHT22;8301;51.440;6.610;2023-08-31T04:08:45;10.10;99.90
16384;DHT22;8301;51.440;6.610;2023-08-31T04:11:12;10.10;99.90
16384;DHT22;8301;51.440;6.610;2023-08-31T04:13:39;10.10;99.90
16384;DHT22;8301;51.440;6.610;2023-08-31T04:16:06;10.10;99.90
16384;DHT22;8301;51.440;6.610;2023-08-31T04:18:32;10.20;99.90
16384;DHT22;8301;51.440;6.610;2023-08-31T04:21:00;10.20;99.90
16384;DHT22;8301;51.440;6.610;2023-08-31T04:23:29;10.20;99.90
16384;DHT22;8301;51.440;6.610;2023-08-31T04:25:56;10.20;99.90
16384;DHT22;8301;51.440;6.610;2023-08-31T04:31:00;10.20;99.90
16384;DHT22;8301;51.440;6.610;2023-08-31T04:33:27;10.20;99.90
16384;DHT22;8301;51.440;6.610;2023-08-31T04:35:54;10.20;99.90
16384;DHT22;8301;51.440;6.610;2023-08-31T04:38:20;10.10;99.90
16384;DHT22;8301;51.440;6.610;2023-08-31T04:40:47;10.20;99.90
16384;DHT22;8301;51.440;6.610;2023-08-31T04:43:19;10.20;99.90
16384;DHT22;8301;51.440;6.610;2023-08-31T04:45:46;10.10;99.90
16384;DHT22;8301;51.440;6.610;2023-08-31T04:48:13;10.20;99.90
16384;DHT22;8301;51.440;6.610;2023-08-31T04:50:41;10.20;99.90
16384;DHT22;8301;51.440;6.610;2023-08-31T04:53:16;10.20;99.90
16384;DHT22;8301;51.440;6.610;2023-08-31T04:55:43;10.20;99.90
16384;DHT22;8301;51.440;6.610;2023-08-31T04:58:10;10.20;99.90
16384;DHT22;8301;51.440;6.610;2023-08-31T05:00:37;10.20;99.90
16384;DHT22;8301;51.440;6.610;2023-08-31T05:03:05;10.20;99.90
16384;DHT22;8301;51.440;6.610;2023-08-31T05:05:32;10.20;99.90
16384;DHT22;8301;51.440;6.610;2023-08-31T05:07:58;10.20;99.90
16384;DHT22;8301;51.440;6.610;2023-08-31T05:10:35;10.20;99.90
16384;DHT22;8301;51.440;6.610;2023-08-31T05:12:58;10.30;99.90
16384;DHT22;8301;51.440;6.610;2023-08-31T05:15:25;10.30;99.90
16384;DHT22;8301;51.440;6.610;2023-08-31T05:17:56;10.30;99.90
16384;DHT22;8301;51.440;6.610;2023-08-31T05:20:26;10.30;99.90
16384;DHT22;8301;51.440;6.610;2023-08-31T05:22:57;10.40;99.90
16384;DHT22;8301;51.440;6.610;2023-08-31T05:28:21;10.50;99.90
16384;DHT22;8301;51.440;6.610;2023-08-31T05:31:00;10.50;99.90
16384;DHT22;8301;51.440;6.610;2023-08-31T05:33:34;10.50;99.90
16384;DHT22;8301;51.440;6.610;2023-08-31T05:36:04;10.60;99.90
16384;DHT22;8301;51.440;6.610;2023-08-31T05:38:31;10.60;99.90
16384;DHT22;8301;51.440;6.610;2023-08-31T05:41:03;10.60;99.90
16384;DHT22;8301;51.440;6.610;2023-08-31T05:43:32;10.70;99.90
16384;DHT22;8301;51.440;6.610;2023-08-31T05:46:00;10.70;99.90
16384;DHT22;8301;51.440;6.610;2023-08-31T05:48:26;10.70;99.90
16384;DHT22;8301;51.440;6.610;2023-08-31T05:50:55;10.80;99.90
16384;DHT22;8301;51.440;6.610;2023-08-31T05:53:24;10.80;99.90
16384;DHT22;8301;51.440;6.610;2023-08-31T05:55:57;10.90;99.90
16384;DHT22;8301;51.440;6.610;2023-08-31T05:58:31;11.00;99.90
16384;DHT22;8301;51.440;6.610;2023-08-31T06:01:00;11.10;99.90
16384;DHT22;8301;51.440;6.610;2023-08-31T06:03:28;11.10;99.90
16384;DHT22;8301;51.440;6.610;2023-08-31T06:08:25;11.30;99.90
16384;DHT22;8301;51.440;6.610;2023-08-31T06:10:54;11.40;99.90
16384;DHT22;8301;51.440;6.610;2023-08-31T06:13:20;11.40;99.90
16384;DHT22;8301;51.440;6.610;2023-08-31T06:15:47;11.40;99.90
16384;DHT22;8301;51.440;6.610;2023-08-31T06:18:21;11.50;99.90
16384;DHT22;8301;51.440;6.610;2023-08-31T06:28:56;11.70;99.90
16384;DHT22;8301;51.440;6.610;2023-08-31T06:39:18;12.00;99.90
16384;DHT22;8301;51.440;6.610;2023-08-31T06:41:45;12.10;99.90
16384;DHT22;8301;51.440;6.610;2023-08-31T06:44:14;12.20;99.90
16384;DHT22;8301;51.440;6.610;2023-08-31T06:46:40;12.30;99.90
16384;DHT22;8301;51.440;6.610;2023-08-31T06:49:07;12.30;99.90
16384;DHT22;8301;51.440;6.610;2023-08-31T06:51:35;12.30;99.90
16384;DHT22;8301;51.440;6.610;2023-08-31T06:54:03;12.40;99.90
16384;DHT22;8301;51.440;6.610;2023-08-31T06:56:37;12.50;99.90
16384;DHT22;8301;51.440;6.610;2023-08-31T06:59:01;12.60;99.90
16384;DHT22;8301;51.440;6.610;2023-08-31T07:01:28;12.70;99.90
16384;DHT22;8301;51.440;6.610;2023-08-31T07:03:55;12.80;99.90
16384;DHT22;8301;51.440;6.610;2023-08-31T07:06:22;12.90;99.90
16384;DHT22;8301;51.440;6.610;2023-08-31T07:08:49;13.10;99.90
16384;DHT22;8301;51.440;6.610;2023-08-31T07:11:16;13.20;99.90
16384;DHT22;8301;51.440;6.610;2023-08-31T07:13:44;13.30;99.90
16384;DHT22;8301;51.440;6.610;2023-08-31T07:16:11;13.50;99.90
16384;DHT22;8301;51.440;6.610;2023-08-31T07:18:39;13.50;99.90
16384;DHT22;8301;51.440;6.610;2023-08-31T07:21:06;13.60;99.90
16384;DHT22;8301;51.440;6.610;2023-08-31T07:23:34;13.60;99.90
16384;DHT22;8301;51.440;6.610;2023-08-31T07:26:00;13.60;99.90
16384;DHT22;8301;51.440;6.610;2023-08-31T07:28:30;13.70;99.90
16384;DHT22;8301;51.440;6.610;2023-08-31T07:31:03;13.80;99.90
16384;DHT22;8301;51.440;6.610;2023-08-31T07:33:31;13.80;99.90
16384;DHT22;8301;51.440;6.610;2023-08-31T07:35:58;13.90;99.90
16384;DHT22;8301;51.440;6.610;2023-08-31T07:38:26;14.00;99.90
16384;DHT22;8301;51.440;6.610;2023-08-31T07:40:53;14.00;99.90
16384;DHT22;8301;51.440;6.610;2023-08-31T07:43:20;14.00;99.90
16384;DHT22;8301;51.440;6.610;2023-08-31T07:45:47;14.10;99.90
16384;DHT22;8301;51.440;6.610;2023-08-31T07:48:14;14.20;99.90
16384;DHT22;8301;51.440;6.610;2023-08-31T07:50:41;14.30;99.90
16384;DHT22;8301;51.440;6.610;2023-08-31T07:53:08;14.30;99.90
16384;DHT22;8301;51.440;6.610;2023-08-31T07:55:35;14.30;99.90
16384;DHT22;8301;51.440;6.610;2023-08-31T07:58:01;14.30;99.90
16384;DHT22;8301;51.440;6.610;2023-08-31T08:00:28;14.40;99.90
16384;DHT22;8301;51.440;6.610;2023-08-31T08:02:55;14.50;99.90
16384;DHT22;8301;51.440;6.610;2023-08-31T08:05:22;14.50;99.90
16384;DHT22;8301;51.440;6.610;2023-08-31T08:07:48;14.60;99.90
16384;DHT22;8301;51.440;6.610;2023-08-31T08:10:15;14.60;99.90
16384;DHT22;8301;51.440;6.610;2023-08-31T08:12:43;14.60;99.90
16384;DHT22;8301;51.440;6.610;2023-08-31T08:15:11;14.70;99.90
16384;DHT22;8301;51.440;6.610;2023-08-31T08:17:38;14.70;99.90
16384;DHT22;8301;51.440;6.610;2023-08-31T08:20:06;14.80;99.90
16384;DHT22;8301;51.440;6.610;2023-08-31T08:22:33;14.90;99.90
16384;DHT22;8301;51.440;6.610;2023-08-31T08:25:01;15.00;99.90
16384;DHT22;8301;51.440;6.610;2023-08-31T08:27:28;15.10;99.90
16384;DHT22;8301;51.440;6.610;2023-08-31T08:29:55;15.20;99.90
16384;DHT22;8301;51.440;6.610;2023-08-31T08:32:22;15.20;99.90
16384;DHT22;8301;51.440;6.610;2023-08-31T08:34:50;15.30;99.90
16384;DHT22;8301;51.440;6.610;2023-08-31T08:37:17;15.30;99.90
16384;DHT22;8301;51.440;6.610;2023-08-31T08:39:47;15.50;99.90
16384;DHT22;8301;51.440;6.610;2023-08-31T08:42:13;15.60;99.90
16384;DHT22;8301;51.440;6.610;2023-08-31T08:44:41;15.80;99.90
16384;DHT22;8301;51.440;6.610;2023-08-31T08:47:08;15.90;99.90
16384;DHT22;8301;51.440;6.610;2023-08-31T08:49:35;15.90;99.90
16384;DHT22;8301;51.440;6.610;2023-08-31T08:52:02;16.10;99.90
16384;DHT22;8301;51.440;6.610;2023-08-31T08:54:29;16.10;99.90
16384;DHT22;8301;51.440;6.610;2023-08-31T08:56:56;16.40;99.90
16384;DHT22;8301;51.440;6.610;2023-08-31T08:59:23;16.60;99.90
16384;DHT22;8301;51.440;6.610;2023-08-31T09:01:50;16.80;99.90
16384;DHT22;8301;51.440;6.610;2023-08-31T09:04:17;16.90;99.90
16384;DHT22;8301;51.440;6.610;2023-08-31T09:06:45;17.10;99.90
16384;DHT22;8301;51.440;6.610;2023-08-31T09:09:12;17.10;99.90
16384;DHT22;8301;51.440;6.610;2023-08-31T09:11:38;17.20;99.90
16384;DHT22;8301;51.440;6.610;2023-08-31T09:14:15;17.40;99.90
16384;DHT22;8301;51.440;6.610;2023-08-31T09:16:46;17.60;99.90
16384;DHT22;8301;51.440;6.610;2023-08-31T09:19:23;17.80;99.90
16384;DHT22;8301;51.440;6.610;2023-08-31T09:21:51;17.90;99.90
16384;DHT22;8301;51.440;6.610;2023-08-31T09:24:18;17.90;91.80
16384;DHT22;8301;51.440;6.610;2023-08-31T09:26:52;18.00;85.10
16384;DHT22;8301;51.440;6.610;2023-08-31T09:29:17;18.00;99.90
16384;DHT22;8301;51.440;6.610;2023-08-31T09:31:44;18.10;56.60
16384;DHT22;8301;51.440;6.610;2023-08-31T09:34:12;18.10;99.90
16384;DHT22;8301;51.440;6.610;2023-08-31T09:36:39;18.10;84.10
16384;DHT22;8301;51.440;6.610;2023-08-31T09:39:06;18.40;89.00
16384;DHT22;8301;51.440;6.610;2023-08-31T09:41:34;18.60;1.00
16384;DHT22;8301;51.440;6.610;2023-08-31T09:44:14;18.50;1.00
16384;DHT22;8301;51.440;6.610;2023-08-31T09:46:42;18.50;1.00
16384;DHT22;8301;51.440;6.610;2023-08-31T09:49:10;18.80;1.00
16384;DHT22;8301;51.440;6.610;2023-08-31T09:51:38;18.50;1.00
16384;DHT22;8301;51.440;6.610;2023-08-31T09:54:06;18.40;1.00
16384;DHT22;8301;51.440;6.610;2023-08-31T09:56:34;18.60;1.00
16384;DHT22;8301;51.440;6.610;2023-08-31T09:59:01;18.80;1.00
16384;DHT22;8301;51.440;6.610;2023-08-31T10:01:28;18.80;1.00
16384;DHT22;8301;51.440;6.610;2023-08-31T10:03:55;19.00;1.00
16384;DHT22;8301;51.440;6.610;2023-08-31T10:06:22;19.50;1.00
16384;DHT22;8301;51.440;6.610;2023-08-31T10:08:49;19.70;1.00
16384;DHT22;8301;51.440;6.610;2023-08-31T10:11:16;19.50;1.00
16384;DHT22;8301;51.440;6.610;2023-08-31T10:13:43;19.40;1.00
16384;DHT22;8301;51.440;6.610;2023-08-31T10:16:11;19.10;1.00
16384;DHT22;8301;51.440;6.610;2023-08-31T10:18:38;19.50;1.00
16384;DHT22;8301;51.440;6.610;2023-08-31T10:21:05;20.00;1.00
16384;DHT22;8301;51.440;6.610;2023-08-31T10:23:35;20.00;1.00
16384;DHT22;8301;51.440;6.610;2023-08-31T10:26:04;20.20;1.00
16384;DHT22;8301;51.440;6.610;2023-08-31T10:28:30;20.60;1.00
16384;DHT22;8301;51.440;6.610;2023-08-31T10:31:05;20.70;1.00
16384;DHT22;8301;51.440;6.610;2023-08-31T10:33:42;20.90;1.00
16384;DHT22;8301;51.440;6.610;2023-08-31T10:36:10;20.50;1.00
16384;DHT22;8301;51.440;6.610;2023-08-31T10:38:37;19.60;1.00
16384;DHT22;8301;51.440;6.610;2023-08-31T10:41:17;19.30;1.00
16384;DHT22;8301;51.440;6.610;2023-08-31T10:49:01;18.90;1.00
16384;DHT22;8301;51.440;6.610;2023-08-31T10:51:29;18.80;1.00
16384;DHT22;8301;51.440;6.610;2023-08-31T10:57:04;18.70;1.00
16384;DHT22;8301;51.440;6.610;2023-08-31T11:01:58;18.30;1.00
16384;DHT22;8301;51.440;6.610;2023-08-31T11:04:31;18.20;1.00
16384;DHT22;8301;51.440;6.610;2023-08-31T11:07:16;18.10;1.00
16384;DHT22;8301;51.440;6.610;2023-08-31T11:12:51;18.90;1.00
16384;DHT22;8301;51.440;6.610;2023-08-31T11:15:22;19.60;1.00
16384;DHT22;8301;51.440;6.610;2023-08-31T11:18:03;19.90;1.00
16384;DHT22;8301;51.440;6.610;2023-08-31T11:20:31;19.90;1.00
16384;DHT22;8301;51.440;6.610;2023-08-31T11:22:58;20.00;1.00
16384;DHT22;8301;51.440;6.610;2023-08-31T11:25:25;19.90;1.00
16384;DHT22;8301;51.440;6.610;2023-08-31T11:30:34;19.40;1.00
16384;DHT22;8301;51.440;6.610;2023-08-31T11:33:08;20.00;1.00
16384;DHT22;8301;51.440;6.610;2023-08-31T11:35:41;20.60;1.00
16384;DHT22;8301;51.440;6.610;2023-08-31T11:38:11;20.50;1.00
16384;DHT22;8301;51.440;6.610;2023-08-31T11:40:38;20.60;1.00
16384;DHT22;8301;51.440;6.610;2023-08-31T11:43:07;20.80;1.00
16384;DHT22;8301;51.440;6.610;2023-08-31T11:45:36;21.00;1.00
16384;DHT22;8301;51.440;6.610;2023-08-31T11:48:04;21.20;1.00
16384;DHT22;8301;51.440;6.610;2023-08-31T11:50:31;21.30;1.00
16384;DHT22;8301;51.440;6.610;2023-08-31T11:52:58;21.30;1.00
16384;DHT22;8301;51.440;6.610;2023-08-31T11:55:26;20.90;1.00
16384;DHT22;8301;51.440;6.610;2023-08-31T11:57:55;20.80;1.00
16384;DHT22;8301;51.440;6.610;2023-08-31T12:00:22;21.00;1.00
16384;DHT22;8301;51.440;6.610;2023-08-31T12:03:04;21.00;1.00
16384;DHT22;8301;51.440;6.610;2023-08-31T12:05:44;20.60;1.00
16384;DHT22;8301;51.440;6.610;2023-08-31T12:08:00;20.40;1.00
16384;DHT22;8301;51.440;6.610;2023-08-31T12:10:35;20.60;1.00
16384;DHT22;8301;51.440;6.610;2023-08-31T12:16:02;20.20;1.00
16384;DHT22;8301;51.440;6.610;2023-08-31T12:18:37;20.10;1.00
16384;DHT22;8301;51.440;6.610;2023-08-31T12:21:04;20.10;1.00
16384;DHT22;8301;51.440;6.610;2023-08-31T12:23:33;20.00;1.00
16384;DHT22;8301;51.440;6.610;2023-08-31T12:25:59;19.60;1.00
16384;DHT22;8301;51.440;6.610;2023-08-31T12:28:27;19.80;1.00
16384;DHT22;8301;51.440;6.610;2023-08-31T12:30:55;20.10;1.00
16384;DHT22;8301;51.440;6.610;2023-08-31T12:33:23;20.40;1.00
16384;DHT22;8301;51.440;6.610;2023-08-31T12:35:52;20.20;1.00
16384;DHT22;8301;51.440;6.610;2023-08-31T12:38:19;20.10;1.00
16384;DHT22;8301;51.440;6.610;2023-08-31T12:40:55;20.00;1.00
16384;DHT22;8301;51.440;6.610;2023-08-31T12:43:21;20.00;1.00
16384;DHT22;8301;51.440;6.610;2023-08-31T12:45:48;20.00;1.00
16384;DHT22;8301;51.440;6.610;2023-08-31T12:48:14;20.00;1.00
16384;DHT22;8301;51.440;6.610;2023-08-31T12:50:42;20.40;1.00
16384;DHT22;8301;51.440;6.610;2023-08-31T12:53:09;20.60;1.00
16384;DHT22;8301;51.440;6.610;2023-08-31T12:55:36;20.90;1.00
16384;DHT22;8301;51.440;6.610;2023-08-31T12:58:02;20.80;1.00
16384;DHT22;8301;51.440;6.610;2023-08-31T13:00:29;20.50;1.00
16384;DHT22;8301;51.440;6.610;2023-08-31T13:02:58;20.80;1.00
16384;DHT22;8301;51.440;6.610;2023-08-31T13:05:26;21.30;1.00
16384;DHT22;8301;51.440;6.610;2023-08-31T13:07:56;21.30;1.00
16384;DHT22;8301;51.440;6.610;2023-08-31T13:10:24;21.00;1.00
16384;DHT22;8301;51.440;6.610;2023-08-31T13:12:50;20.80;1.00
16384;DHT22;8301;51.440;6.610;2023-08-31T13:15:17;20.90;1.00
16384;DHT22;8301;51.440;6.610;2023-08-31T13:17:44;21.20;1.00
16384;DHT22;8301;51.440;6.610;2023-08-31T13:20:11;21.40;1.00
16384;DHT22;8301;51.440;6.610;2023-08-31T13:22:38;21.60;1.00
16384;DHT22;8301;51.440;6.610;2023-08-31T13:25:05;21.90;1.00
16384;DHT22;8301;51.440;6.610;2023-08-31T13:27:32;21.70;1.00
16384;DHT22;8301;51.440;6.610;2023-08-31T13:29:59;21.60;1.00
16384;DHT22;8301;51.440;6.610;2023-08-31T13:32:25;21.20;1.00
16384;DHT22;8301;51.440;6.610;2023-08-31T13:34:52;20.80;1.00
16384;DHT22;8301;51.440;6.610;2023-08-31T13:37:19;20.70;1.00
16384;DHT22;8301;51.440;6.610;2023-08-31T13:39:46;20.40;1.00
16384;DHT22;8301;51.440;6.610;2023-08-31T13:42:14;20.20;1.00
16384;DHT22;8301;51.440;6.610;2023-08-31T13:44:43;20.00;1.00
16384;DHT22;8301;51.440;6.610;2023-08-31T13:47:09;19.80;1.00
16384;DHT22;8301;51.440;6.610;2023-08-31T13:49:36;19.60;1.00
16384;DHT22;8301;51.440;6.610;2023-08-31T13:52:03;19.40;1.00
16384;DHT22;8301;51.440;6.610;2023-08-31T13:54:33;19.40;1.00
16384;DHT22;8301;51.440;6.610;2023-08-31T13:56:59;19.20;1.00
16384;DHT22;8301;51.440;6.610;2023-08-31T13:59:26;19.10;1.00
16384;DHT22;8301;51.440;6.610;2023-08-31T14:02:06;18.30;1.00
16384;DHT22;8301;51.440;6.610;2023-08-31T14:04:39;17.60;99.90
16384;DHT22;8301;51.440;6.610;2023-08-31T14:07:07;17.30;1.00
16384;DHT22;8301;51.440;6.610;2023-08-31T14:09:42;16.90;1.00
16384;DHT22;8301;51.440;6.610;2023-08-31T14:12:09;16.60;1.00
16384;DHT22;8301;51.440;6.610;2023-08-31T14:14:36;16.40;58.80
16384;DHT22;8301;51.440;6.610;2023-08-31T14:17:04;16.20;99.90
16384;DHT22;8301;51.440;6.610;2023-08-31T14:19:32;16.10;99.90
16384;DHT22;8301;51.440;6.610;2023-08-31T14:22:01;16.00;1.00
16384;DHT22;8301;51.440;6.610;2023-08-31T14:24:29;15.90;1.00
16384;DHT22;8301;51.440;6.610;2023-08-31T14:26:56;16.00;99.90
16384;DHT22;8301;51.440;6.610;2023-08-31T14:29:23;16.00;1.00
16384;DHT22;8301;51.440;6.610;2023-08-31T14:31:50;16.00;1.00
16384;DHT22;8301;51.440;6.610;2023-08-31T14:34:19;16.00;1.00
16384;DHT22;8301;51.440;6.610;2023-08-31T14:36:46;16.00;99.90
16384;DHT22;8301;51.440;6.610;2023-08-31T14:39:12;16.00;1.00
16384;DHT22;8301;51.440;6.610;2023-08-31T14:41:40;16.00;99.90
16384;DHT22;8301;51.440;6.610;2023-08-31T14:44:08;16.00;1.00
16384;DHT22;8301;51.440;6.610;2023-08-31T14:46:35;16.00;99.90
16384;DHT22;8301;51.440;6.610;2023-08-31T14:49:02;16.00;99.90
16384;DHT22;8301;51.440;6.610;2023-08-31T14:51:30;16.00;1.00
16384;DHT22;8301;51.440;6.610;2023-08-31T14:53:56;15.90;1.00
16384;DHT22;8301;51.440;6.610;2023-08-31T14:56:24;15.90;1.00
16384;DHT22;8301;51.440;6.610;2023-08-31T14:58:51;15.80;1.00
16384;DHT22;8301;51.440;6.610;2023-08-31T15:01:18;15.70;1.00
16384;DHT22;8301;51.440;6.610;2023-08-31T15:03:45;15.60;1.00
16384;DHT22;8301;51.440;6.610;2023-08-31T15:06:13;15.70;1.00
16384;DHT22;8301;51.440;6.610;2023-08-31T15:08:42;15.70;99.90
16384;DHT22;8301;51.440;6.610;2023-08-31T15:13:51;15.70;72.40
16384;DHT22;8301;51.440;6.610;2023-08-31T15:16:20;15.80;1.00
16384;DHT22;8301;51.440;6.610;2023-08-31T15:18:47;15.70;1.00
16384;DHT22;8301;51.440;6.610;2023-08-31T15:21:16;15.80;1.00
16384;DHT22;8301;51.440;6.610;2023-08-31T15:23:46;15.80;1.00
16384;DHT22;8301;51.440;6.610;2023-08-31T15:26:14;15.80;99.90
16384;DHT22;8301;51.440;6.610;2023-08-31T15:28:43;15.80;99.90
16384;DHT22;8301;51.440;6.610;2023-08-31T15:31:12;15.80;1.00
16384;DHT22;8301;51.440;6.610;2023-08-31T15:33:41;15.70;99.90
16384;DHT22;8301;51.440;6.610;2023-08-31T15:49:09;15.90;1.00
16384;DHT22;8301;51.440;6.610;2023-08-31T15:51:37;15.90;1.00
16384;DHT22;8301;51.440;6.610;2023-08-31T15:56:39;16.30;1.00
16384;DHT22;8301;51.440;6.610;2023-08-31T15:59:08;16.60;99.90
16384;DHT22;8301;51.440;6.610;2023-08-31T16:01:36;16.60;99.90
16384;DHT22;8301;51.440;6.610;2023-08-31T16:07:19;16.80;99.90
16384;DHT22;8301;51.440;6.610;2023-08-31T16:13:01;16.80;1.00
16384;DHT22;8301;51.440;6.610;2023-08-31T16:15:28;16.80;1.00
16384;DHT22;8301;51.440;6.610;2023-08-31T16:17:56;17.00;99.90
16384;DHT22;8301;51.440;6.610;2023-08-31T16:20:23;16.90;99.90
16384;DHT22;8301;51.440;6.610;2023-08-31T16:22:52;17.00;99.90
16384;DHT22;8301;51.440;6.610;2023-08-31T16:25:19;16.90;1.00
16384;DHT22;8301;51.440;6.610;2023-08-31T16:27:46;16.80;99.90
16384;DHT22;8301;51.440;6.610;2023-08-31T16:32:50;16.80;99.90
16384;DHT22;8301;51.440;6.610;2023-08-31T16:35:17;16.90;1.00
16384;DHT22;8301;51.440;6.610;2023-08-31T16:37:44;17.00;99.90
16384;DHT22;8301;51.440;6.610;2023-08-31T16:40:22;17.10;99.90
16384;DHT22;8301;51.440;6.610;2023-08-31T16:42:46;17.10;1.00
16384;DHT22;8301;51.440;6.610;2023-08-31T16:45:13;17.10;99.90
16384;DHT22;8301;51.440;6.610;2023-08-31T16:47:40;17.00;99.90
16384;DHT22;8301;51.440;6.610;2023-08-31T16:50:08;16.80;1.00
16384;DHT22;8301;51.440;6.610;2023-08-31T16:52:36;16.70;99.90
16384;DHT22;8301;51.440;6.610;2023-08-31T16:55:03;16.80;1.00
16384;DHT22;8301;51.440;6.610;2023-08-31T16:57:30;16.70;92.30
16384;DHT22;8301;51.440;6.610;2023-08-31T16:59:56;16.70;1.00
16384;DHT22;8301;51.440;6.610;2023-08-31T17:02:23;16.80;99.90
16384;DHT22;8301;51.440;6.610;2023-08-31T17:04:51;16.80;99.90
16384;DHT22;8301;51.440;6.610;2023-08-31T17:07:18;16.80;1.00
16384;DHT22;8301;51.440;6.610;2023-08-31T17:09:45;16.70;1.00
16384;DHT22;8301;51.440;6.610;2023-08-31T17:12:12;16.70;99.90
16384;DHT22;8301;51.440;6.610;2023-08-31T17:14:41;16.70;99.90
16384;DHT22;8301;51.440;6.610;2023-08-31T17:17:11;16.70;99.90
16384;DHT22;8301;51.440;6.610;2023-08-31T17:19:38;16.70;1.00
16384;DHT22;8301;51.440;6.610;2023-08-31T17:22:05;16.70;1.00
16384;DHT22;8301;51.440;6.610;2023-08-31T17:24:32;16.80;99.90
16384;DHT22;8301;51.440;6.610;2023-08-31T17:26:59;16.80;1.00
16384;DHT22;8301;51.440;6.610;2023-08-31T17:29:26;16.80;99.90
16384;DHT22;8301;51.440;6.610;2023-08-31T17:31:53;16.80;99.90
16384;DHT22;8301;51.440;6.610;2023-08-31T17:34:20;16.70;99.90
16384;DHT22;8301;51.440;6.610;2023-08-31T17:36:49;16.80;1.00
16384;DHT22;8301;51.440;6.610;2023-08-31T17:39:16;16.80;99.90
16384;DHT22;8301;51.440;6.610;2023-08-31T17:41:42;16.80;1.00
16384;DHT22;8301;51.440;6.610;2023-08-31T17:44:11;16.80;99.90
16384;DHT22;8301;51.440;6.610;2023-08-31T17:46:38;16.80;1.00
16384;DHT22;8301;51.440;6.610;2023-08-31T17:49:05;16.80;1.00
16384;DHT22;8301;51.440;6.610;2023-08-31T17:51:32;16.80;5.90
16384;DHT22;8301;51.440;6.610;2023-08-31T17:53:59;16.70;2.70
16384;DHT22;8301;51.440;6.610;2023-08-31T17:56:26;16.70;99.90
16384;DHT22;8301;51.440;6.610;2023-08-31T17:58:53;16.60;1.00
16384;DHT22;8301;51.440;6.610;2023-08-31T18:01:20;16.60;17.20
16384;DHT22;8301;51.440;6.610;2023-08-31T18:03:47;16.60;1.00
16384;DHT22;8301;51.440;6.610;2023-08-31T18:06:15;16.50;99.90
16384;DHT22;8301;51.440;6.610;2023-08-31T18:08:42;16.50;81.60
16384;DHT22;8301;51.440;6.610;2023-08-31T18:11:10;16.50;1.00
16384;DHT22;8301;51.440;6.610;2023-08-31T18:13:38;16.50;1.00
16384;DHT22;8301;51.440;6.610;2023-08-31T18:16:12;16.50;99.90
16384;DHT22;8301;51.440;6.610;2023-08-31T18:18:40;16.50;1.00